WEATHER DATA

YESTERDAY
Time Temp. Dewp. Hum. Bar.
00:09 -3.4 -6.6 76 1023.1
00:19 -3.5 -6.9 75 1023.3
00:29 -3.4 -6.6 76 1023.3
00:40 -3.5 -6.7 76 1023.3
00:49 -3.6 -6.8 76 1023.4
00:59 -3.9 -7.1 76 1023.6
01:09 -4.1 -7.1 77 1023.6
01:20 -4.3 -7.3 77 1023.7
01:30 -4.4 -7.4 77 1023.6
01:39 -4.5 -7.4 78 1023.7
01:50 -4.6 -7.5 78 1023.6
02:00 -4.8 -7.7 78 1023.7
02:09 -4.9 -7.8 78 1023.8
02:20 -5.1 -8 78 1023.8
02:30 -5.2 -7.9 79 1023.9
02:40 -5.3 -8 79 1023.9
02:50 -5.4 -8.1 79 1024
03:01 -5.6 -8.3 79 1024.1
03:09 -5.7 -8.4 79 1024.1
03:20 -5.9 -8.5 80 1024.1
03:30 -6 -8.6 80 1024
03:41 -6.1 -8.7 80 1024.2
03:51 -6.2 -8.8 80 1024.1
04:00 -6.4 -9 80 1024.1
04:11 -6.6 -9.2 80 1024.1
04:21 -6.7 -9.1 81 1024
04:31 -6.8 -9.2 81 1023.9
04:41 -6.8 -9.2 81 1023.9
04:51 -6.9 -9.2 82 1023.9
05:01 -7.1 -9.5 81 1023.7
05:11 -7.2 -9.6 81 1023.7
05:22 -7.3 -9.6 82 1023.8
05:31 -7.4 -9.7 82 1023.7
05:41 -7.4 -9.7 82 1023.6
05:51 -7.5 -9.8 82 1023.6
06:02 -7.5 -9.6 83 1023.6
06:12 -7.5 -9.6 83 1023.8
06:21 -7.5 -9.8 82 1023.8
06:32 -7.5 -9.8 82 1023.7
06:42 -7.4 -9.5 83 1023.9
06:52 -7.2 -9.3 83 1024.1
07:02 -7.1 -9.2 83 1024.2
07:12 -6.8 -8.9 83 1024.4
07:22 -6.5 -8.6 83 1024.4
07:32 -6.2 -8.3 83 1024.4
07:43 -5.8 -7.9 83 1024.2
07:53 -5.4 -7.6 83 1024.1
08:02 -5.1 -7.4 82 1024
08:12 -4.9 -7.3 81 1024
08:23 -4.6 -7.2 80 1024
08:33 -4.3 -6.9 80 1023.9
08:42 -4 -6.7 79 1023.6
08:53 -3.7 -6.5 79 1023.7
09:03 -3.4 -6.3 78 1023.8
09:13 -3 -5.9 78 1023.8
09:23 -2.6 -5.7 77 1023.8
09:33 -2.3 -5.5 76 1023.9
09:43 -1.9 -5.3 75 1024
09:53 -1.5 -5.1 74 1023.9
10:04 -1.1 -4.8 73 1023.9
10:14 -0.6 -4.5 72 1023.8
10:23 -0.3 -4.4 71 1023.7
10:33 0.1 -4.2 70 1023.6
10:44 0.5 -4 69 1023.5
10:51 0.8 -3.9 68 1023.4
11:03 1.2 -3.9 66 1023.3
11:14 1.6 -3.6 66 1023.4
11:24 1.9 -3.5 65 1023.2
11:34 2.2 -3.6 63 1023
11:44 2.3 -3.7 62 1022.9
11:54 2.5 -3.6 62 1022.8
12:04 2.8 -3.5 61 1022.6
12:14 3.1 -3.5 60 1022.6
12:24 3.3 -3.5 59 1022.5
12:35 3.5 -3.5 58 1022.3
12:44 3.8 -3.3 58 1022.1
12:54 4 -3.5 56 1022.1
13:05 4.3 -3.7 54 1022.2
13:15 4.5 -3.5 54 1022.2
13:24 4.6 -3.9 52 1021.9
13:35 4.8 -4.2 50 1021.7
13:45 4.9 -4.1 50 1021.7
13:55 4.9 -4.1 50 1021.7
14:05 5 -4 50 1021.7
14:15 5.1 -4.2 49 1021.5
14:25 5 -4 50 1021.5
14:35 5 -4.3 49 1021.3
14:45 4.9 -4.6 48 1021.3
14:56 4.8 -4.7 48 1021.3
15:05 4.8 -4.9 47 1021.2
15:15 4.7 -4.5 49 1021.1
15:26 4.6 -4.6 49 1021
15:36 4.5 -4.4 50 1020.9
15:45 4.4 -4.8 49 1020.8
15:55 4.3 -4.6 50 1020.9
16:06 4.2 -4.9 49 1020.9
16:16 4.1 -4.8 50 1020.8
16:26 4 -4.9 50 1020.8
16:36 3.9 -5.2 49 1020.8
16:46 3.9 -5.2 49 1020.7
16:56 3.8 -5 50 1020.7
17:06 3.8 -4.8 51 1020.5
17:17 3.7 -4.9 51 1020.4
17:26 3.6 -4.7 52 1020.5
17:36 3.5 -5.3 50 1020.4
17:47 3.4 -5.3 50 1020.3
17:57 3.3 -5.2 51 1020.3
18:06 3.2 -5.3 51 1020.2
18:17 3.1 -5.4 51 1020.2
18:27 3 -5.2 52 1020.1
18:37 2.9 -5.3 52 1020.1
18:47 2.7 -5.2 53 1020.1
18:57 2.6 -5.1 54 1020
19:07 2.4 -4.9 56 1019.9
19:17 2.2 -4.8 57 1020
19:27 2 -4.8 58 1020
19:38 1.8 -4.7 59 1020
19:47 1.6 -4.7 60 1020
19:57 1.3 -4.4 63 1020.1
20:08 1.1 -4.4 64 1020.1
20:18 1 -4.3 65 1020.1
20:28 0.7 -4.5 65 1020.1
20:38 0.6 -4.4 66 1020.1
20:48 0.4 -4.4 67 1020.1
20:58 0.2 -4.6 67 1020
21:08 0.1 -4.7 67 1020
21:18 0 -4.6 68 1020.1
21:28 -0.1 -4.5 69 1020.1
21:38 -0.2 -4.6 69 1020.1
21:48 -0.3 -4.6 70 1020
21:59 -0.4 -4.5 71 1019.9
22:08 -0.5 -4.4 72 1019.9
22:18 -0.5 -4.6 71 1019.8
22:29 -0.6 -4.5 72 1019.8
22:39 -0.6 -4.5 72 1019.6
22:49 -0.7 -4.6 72 1019.5
22:59 -0.7 -4.6 72 1019.4
23:09 -0.8 -4.5 73 1019.4
23:19 -0.8 -4.5 73 1019.4
23:29 -0.7 -4.4 73 1019.2
23:39 -0.5 -4.6 71 1019.2
23:49 -0.4 -4.6 70 1019.1

DAY STATISTIC

2021-04-12
TEMPERATURE
AVERAGE
-0.9
HIGH
5.1
14:15
LOW
-7.5
05:51
PRESSURE
AVERAGE
1022.2
HIGH
1024.4
07:12
LOW
1019.1
23:49
DEWPOINT
AVERAGE
-5.9
HIGH
-3.3
12:44
LOW
-9.8
05:51
HUMIDITY
AVERAGE
68
HIGH
83
06:02
LOW
47
15:05
TEMPERATURE (°C)
LOW
-7.5
HIGH
5.1
AVERAGE
-0.9
PRESSURE (hpa)
LOW
1019.1
HIGH
1024.4
AVERAGE
1022.2
DEVICE